Terminal Aerodrome Forecast
Issued by NWS

Current Version | Previous Version | Text Only | Print | Product List | Glossary Off
Versions: 1 2 3 4 5 6 7 8 9 10 11 12 13 14 15 16

510
FTUS41 KILN 191208 AAA
TAFLUK
TAF AMD
KLUK 191208Z 1912/2012 23009KT P6SM FEW250
     FM192300 00000KT P6SM SKC
     FM200600 00000KT 3SM BR SKC
     FM200800 00000KT 1SM BR SCT002=

USA.gov is the U.S. government's official web portal to all federal, state and local government web resources and services.